Time;durP1;ratioP1;P1;durP2;ratioP2;P2;SDS_P1;SDS_P2;PMS_P1;PMS_P2;Temp;Humidity;BMP_temperature;BMP_pressure;BME280_temperature;BME280_humidity;BME280_pressure;Samples;Min_cycle;Max_cycle;Signal;HPM_P1;HPM_P2
2022/06/13 00:00:37;;;;;;;5.72;2.75;;;20.00;99.90;;;;;;6940450;28;20100;-78
2022/06/13 00:04:00;;;;;;;5.68;2.90;;;20.10;99.90;;;;;;6938740;28;20080;-78
2022/06/13 00:07:24;;;;;;;5.65;2.97;;;20.10;99.90;;;;;;6940619;28;20091;-79
2022/06/13 00:10:46;;;;;;;9.15;3.47;;;20.20;99.90;;;;;;6940399;28;20519;-78
2022/06/13 00:14:09;;;;;;;9.05;3.50;;;20.30;99.90;;;;;;6941912;28;20541;-77
2022/06/13 00:17:31;;;;;;;7.18;3.30;;;20.30;99.90;;;;;;6946180;28;20080;-78
2022/06/13 00:20:55;;;;;;;5.85;3.03;;;20.40;99.90;;;;;;6944086;28;20134;-78
2022/06/13 00:24:18;;;;;;;6.10;2.95;;;20.40;99.90;;;;;;6946099;28;20037;-75
2022/06/13 00:27:40;;;;;;;6.40;3.50;;;20.40;99.90;;;;;;6945373;28;20089;-76
2022/06/13 00:31:02;;;;;;;6.70;3.17;;;20.40;99.90;;;;;;6943810;28;20088;-79
2022/06/13 00:34:24;;;;;;;7.32;3.17;;;20.40;99.90;;;;;;6943785;28;20073;-78
2022/06/13 00:37:46;;;;;;;8.18;3.58;;;20.30;99.90;;;;;;6945181;28;20435;-78
2022/06/13 00:41:13;;;;;;;5.63;3.13;;;20.30;99.90;;;;;;6939733;28;20138;-78
2022/06/13 00:44:39;;;;;;;4.50;2.88;;;20.20;99.90;;;;;;6944380;28;20052;-78
2022/06/13 00:48:01;;;;;;;7.90;3.38;;;20.20;99.90;;;;;;6944052;28;20088;-77
2022/06/13 00:51:23;;;;;;;4.38;2.83;;;20.20;99.90;;;;;;6945068;28;20089;-78
2022/06/13 00:54:47;;;;;;;4.95;2.95;;;20.20;99.90;;;;;;6941804;28;20073;-78
2022/06/13 00:58:12;;;;;;;7.32;3.25;;;20.20;99.90;;;;;;6944680;28;20092;-78
2022/06/13 01:01:35;;;;;;;6.03;2.88;;;20.20;99.90;;;;;;6944683;28;20102;-78
2022/06/13 01:04:58;;;;;;;6.25;2.75;;;20.20;99.90;;;;;;6943571;28;20085;-78
2022/06/13 01:08:23;;;;;;;4.32;2.40;;;20.20;99.90;;;;;;6945930;28;20044;-76
2022/06/13 01:11:51;;;;;;;5.10;2.40;;;20.20;99.90;;;;;;6944664;28;20053;-77
2022/06/13 01:15:39;;;;;;;5.45;2.20;;;20.10;99.90;;;;;;6945096;28;20072;-77
2022/06/13 01:19:52;;;;;;;5.00;2.20;;;20.00;99.90;;;;;;6944042;28;20112;-78
2022/06/13 01:23:39;;;;;;;5.82;2.03;;;20.00;99.90;;;;;;6914084;28;20060;-79
2022/06/13 01:27:41;;;;;;;3.92;1.98;;;20.00;99.90;;;;;;6940844;28;20272;-80
2022/06/13 01:31:16;;;;;;;5.13;1.45;;;19.90;99.90;;;;;;6943318;28;20048;-78
2022/06/13 01:34:48;;;;;;;3.85;1.63;;;19.90;99.90;;;;;;6943550;28;20472;-78
2022/06/13 01:38:25;;;;;;;3.63;1.83;;;19.90;99.90;;;;;;6942590;28;20455;-76
2022/06/13 01:42:03;;;;;;;4.20;1.98;;;19.70;99.90;;;;;;6942937;28;20407;-78
2022/06/13 01:45:37;;;;;;;4.60;2.08;;;19.50;99.90;;;;;;6943414;28;20565;-77
2022/06/13 01:49:16;;;;;;;6.05;2.10;;;19.40;99.90;;;;;;6942811;28;20080;-79
2022/06/13 01:52:54;;;;;;;3.75;2.03;;;19.40;99.90;;;;;;6943420;28;20442;-78
2022/06/13 01:56:18;;;;;;;3.63;1.90;;;19.30;99.90;;;;;;6913397;28;20534;-77
2022/06/13 01:59:48;;;;;;;3.92;2.25;;;19.30;99.90;;;;;;6941737;28;20065;-78
2022/06/13 02:03:17;;;;;;;5.28;2.00;;;19.30;99.90;;;;;;6942141;28;20042;-78
2022/06/13 02:06:44;;;;;;;4.80;2.17;;;19.40;99.90;;;;;;6943387;28;20077;-79
2022/06/13 02:10:13;;;;;;;3.78;1.88;;;19.50;99.90;;;;;;6941527;28;20046;-76
2022/06/13 02:13:38;;;;;;;3.92;2.13;;;19.50;99.90;;;;;;6918030;28;20096;-79
2022/06/13 02:17:12;;;;;;;3.30;1.95;;;19.40;99.90;;;;;;6942797;28;20084;-78
2022/06/13 02:20:39;;;;;;;3.65;1.90;;;19.40;99.90;;;;;;6917689;28;20095;-78
2022/06/13 02:24:08;;;;;;;4.45;2.08;;;19.40;99.90;;;;;;6942041;28;20541;-79
2022/06/13 02:27:34;;;;;;;4.63;2.05;;;19.40;99.90;;;;;;6941547;28;20038;-79
2022/06/13 02:31:01;;;;;;;4.93;2.03;;;19.40;99.90;;;;;;6941519;28;20060;-80
2022/06/13 02:34:28;;;;;;;4.38;2.17;;;19.30;99.90;;;;;;6930513;28;20056;-80
2022/06/13 02:37:54;;;;;;;5.35;2.10;;;19.20;99.90;;;;;;6939246;28;20037;-79
2022/06/13 02:41:23;;;;;;;4.85;2.05;;;19.10;99.90;;;;;;6944010;28;20089;-79
2022/06/13 02:44:50;;;;;;;4.95;2.10;;;19.00;99.90;;;;;;6948009;28;20099;-78
2022/06/13 02:48:18;;;;;;;5.47;2.15;;;18.80;99.90;;;;;;6947708;28;20442;-79
2022/06/13 02:51:49;;;;;;;6.68;2.33;;;18.80;99.90;;;;;;6940728;28;20044;-79
2022/06/13 02:55:14;;;;;;;3.72;2.40;;;18.90;99.90;;;;;;6943047;28;20049;-79
2022/06/13 02:58:53;;;;;;;4.13;2.17;;;18.90;99.90;;;;;;6947255;28;20188;-79
2022/06/13 03:02:22;;;;;;;4.90;2.20;;;19.00;99.90;;;;;;6943016;28;20088;-78
2022/06/13 03:05:54;;;;;;;4.40;2.13;;;18.90;99.90;;;;;;6942350;28;20069;-79
2022/06/13 03:09:25;;;;;;;7.53;2.78;;;19.00;99.90;;;;;;6912497;28;20053;-78
2022/06/13 03:12:56;;;;;;;5.20;2.17;;;19.00;99.90;;;;;;6940593;28;20084;-79
2022/06/13 03:16:27;;;;;;;5.95;2.58;;;18.90;99.90;;;;;;6940315;28;20045;-79
2022/06/13 03:19:54;;;;;;;4.05;2.20;;;19.00;99.90;;;;;;6941147;28;20499;-80
2022/06/13 03:23:22;;;;;;;4.65;2.10;;;18.90;99.90;;;;;;6938589;28;20070;-79
2022/06/13 03:26:52;;;;;;;4.20;2.10;;;18.80;99.90;;;;;;6940621;28;20082;-77
2022/06/13 03:30:19;;;;;;;4.63;2.00;;;18.90;99.90;;;;;;6940879;28;20483;-79
2022/06/13 03:33:45;;;;;;;4.03;1.77;;;18.90;99.90;;;;;;6941978;28;20510;-79
2022/06/13 03:37:13;;;;;;;4.63;2.00;;;18.80;99.90;;;;;;6939567;28;20507;-79
2022/06/13 03:40:41;;;;;;;3.63;2.13;;;18.90;99.90;;;;;;6941392;28;20103;-78
2022/06/13 03:44:10;;;;;;;5.68;2.15;;;18.90;99.90;;;;;;6940377;28;20077;-79
2022/06/13 03:47:38;;;;;;;4.00;1.90;;;18.80;99.90;;;;;;6938891;28;20068;-79
2022/06/13 03:51:06;;;;;;;5.13;2.05;;;18.80;99.90;;;;;;6946195;28;20084;-78
2022/06/13 03:54:35;;;;;;;4.03;2.13;;;18.80;99.90;;;;;;6950274;28;20057;-78
2022/06/13 03:58:07;;;;;;;4.47;2.00;;;18.70;99.90;;;;;;6944814;28;20219;-79
2022/06/13 04:01:35;;;;;;;4.10;2.15;;;18.80;99.90;;;;;;6946243;28;20510;-79
2022/06/13 04:04:58;;;;;;;4.10;2.00;;;18.70;99.90;;;;;;6946111;28;20045;-79
2022/06/13 04:08:22;;;;;;;4.95;2.20;;;18.60;99.90;;;;;;6945677;28;20084;-80
2022/06/13 04:12:21;;;;;;;6.15;2.60;;;18.60;99.90;;;;;;6945593;28;20092;-80
2022/06/13 04:16:33;;;;;;;4.78;2.33;;;18.60;99.90;;;;;;6944629;28;20038;-77
2022/06/13 04:20:00;;;;;;;7.25;2.83;;;18.60;99.90;;;;;;6933449;28;20100;-79
2022/06/13 04:23:33;;;;;;;7.47;2.53;;;18.50;99.90;;;;;;6945506;28;20100;-79
2022/06/13 04:27:04;;;;;;;5.13;2.60;;;18.40;99.90;;;;;;6944036;28;20080;-80
2022/06/13 04:30:29;;;;;;;5.65;2.30;;;18.50;99.90;;;;;;6932691;28;20050;-79
2022/06/13 04:33:57;;;;;;;6.75;2.58;;;18.50;99.90;;;;;;6919888;28;20085;-80
2022/06/13 04:37:23;;;;;;;5.78;2.58;;;18.60;99.90;;;;;;6919601;28;20078;-80
2022/06/13 04:40:50;;;;;;;7.07;2.55;;;18.70;99.90;;;;;;6920056;28;20089;-80
2022/06/13 04:44:18;;;;;;;7.00;2.50;;;18.60;99.90;;;;;;6919521;28;20053;-80
2022/06/13 04:47:40;;;;;;;8.63;2.35;;;18.60;99.90;;;;;;6919429;28;20077;-80
2022/06/13 04:51:08;;;;;;;7.00;2.30;;;18.50;99.90;;;;;;6919195;28;20078;-77
2022/06/13 04:54:35;;;;;;;7.72;2.95;;;18.50;99.90;;;;;;6918896;28;20104;-80
2022/06/13 04:57:59;;;;;;;9.00;2.58;;;18.50;99.90;;;;;;6918961;28;20694;-80
2022/06/13 05:01:27;;;;;;;7.50;2.42;;;18.50;99.90;;;;;;6917669;28;20057;-80
2022/06/13 05:04:49;;;;;;;9.32;2.63;;;18.50;99.90;;;;;;6918805;28;20105;-79
2022/06/13 05:08:14;;;;;;;7.40;2.30;;;18.40;99.90;;;;;;6918848;28;20088;-79
2022/06/13 05:11:41;;;;;;;9.52;2.45;;;18.40;99.90;;;;;;6918833;28;20056;-80
2022/06/13 05:15:10;;;;;;;6.93;2.33;;;18.40;99.90;;;;;;6918352;28;20569;-78
2022/06/13 05:19:03;;;;;;;6.38;2.30;;;18.40;99.90;;;;;;6918080;28;20504;-79
2022/06/13 05:22:47;;;;;;;8.52;2.50;;;18.30;99.90;;;;;;6917730;28;20053;-79
2022/06/13 05:26:10;;;;;;;8.68;2.75;;;18.30;99.90;;;;;;6918501;28;20524;-80
2022/06/13 05:29:32;;;;;;;7.32;2.20;;;18.20;99.90;;;;;;6918194;28;20077;-80
2022/06/13 05:32:56;;;;;;;11.40;2.72;;;18.20;99.90;;;;;;6918261;28;20492;-79
2022/06/13 05:36:22;;;;;;;9.70;2.78;;;18.20;99.90;;;;;;6918240;28;20069;-80
2022/06/13 05:39:44;;;;;;;8.70;2.60;;;18.00;99.90;;;;;;6917783;28;20088;-80
2022/06/13 05:43:06;;;;;;;8.00;2.75;;;18.00;99.90;;;;;;6917917;28;20092;-80
2022/06/13 05:46:32;;;;;;;8.23;2.67;;;17.90;99.90;;;;;;6917656;28;20045;-80
2022/06/13 05:49:56;;;;;;;7.03;2.38;;;18.00;99.90;;;;;;6917695;28;20080;-80
2022/06/13 05:53:21;;;;;;;5.88;2.42;;;18.00;99.90;;;;;;6917741;28;20081;-80
2022/06/13 05:56:43;;;;;;;9.43;2.85;;;18.00;99.90;;;;;;6917869;28;20053;-80
2022/06/13 06:00:12;;;;;;;6.85;2.65;;;17.90;99.90;;;;;;6917570;28;20515;-79
2022/06/13 06:03:34;;;;;;;8.40;2.72;;;17.90;99.90;;;;;;6917570;28;20100;-80
2022/06/13 06:06:57;;;;;;;7.25;2.90;;;17.90;99.90;;;;;;6917786;28;20595;-79
2022/06/13 06:10:28;;;;;;;9.52;2.50;;;18.00;99.90;;;;;;6917131;28;20162;-80
2022/06/13 06:13:50;;;;;;;9.25;2.90;;;18.10;99.90;;;;;;6916794;28;20065;-79
2022/06/13 06:17:12;;;;;;;10.07;2.72;;;18.00;99.90;;;;;;6918078;28;20139;-78
2022/06/13 06:20:34;;;;;;;9.43;3.43;;;18.00;99.90;;;;;;6917441;28;20046;-79
2022/06/13 06:23:58;;;;;;;9.07;2.88;;;18.00;99.90;;;;;;6920104;28;20332;-81
2022/06/13 06:27:20;;;;;;;10.00;2.75;;;17.90;99.90;;;;;;6919730;28;20081;-81
2022/06/13 06:30:42;;;;;;;9.82;2.72;;;18.00;99.90;;;;;;6918320;28;20096;-78
2022/06/13 06:34:04;;;;;;;9.38;3.10;;;18.00;99.90;;;;;;6918101;28;20077;-78
2022/06/13 06:37:26;;;;;;;7.28;2.60;;;18.10;99.90;;;;;;6916805;28;20488;-81
2022/06/13 06:40:50;;;;;;;8.97;2.60;;;18.20;99.90;;;;;;6916426;28;20148;-78
2022/06/13 06:44:12;;;;;;;7.85;2.63;;;18.30;99.90;;;;;;6916585;28;20088;-80
2022/06/13 06:47:35;;;;;;;6.83;2.70;;;18.20;99.90;;;;;;6917469;28;20478;-78
2022/06/13 06:50:57;;;;;;;8.00;2.53;;;18.10;99.90;;;;;;6919921;28;20057;-79
2022/06/13 07:01:49;;;;;;;8.85;2.47;;;18.10;98.80;;;;;;6915866;28;20053;-79
2022/06/13 07:05:13;;;;;;;9.15;3.42;;;18.10;98.30;;;;;;6916122;28;20054;-77
2022/06/13 07:08:36;;;;;;;7.28;2.50;;;18.20;97.90;;;;;;6916319;28;20045;-80
2022/06/13 07:11:58;;;;;;;7.15;2.33;;;18.20;97.50;;;;;;6915734;28;20049;-79
2022/06/13 07:15:22;;;;;;;10.57;2.83;;;18.30;97.60;;;;;;6915611;28;20136;-79
2022/06/13 07:18:45;;;;;;;10.20;2.75;;;18.30;97.40;;;;;;6915955;28;20093;-80
2022/06/13 07:22:08;;;;;;;9.43;2.45;;;18.40;96.90;;;;;;6915483;28;20481;-78
2022/06/13 07:25:32;;;;;;;7.82;2.95;;;18.50;97.20;;;;;;6915336;28;20042;-79
2022/06/13 07:28:54;;;;;;;7.93;2.60;;;18.50;96.80;;;;;;6916031;28;20096;-80
2022/06/13 07:32:21;;;;;;;9.65;2.75;;;18.60;97.20;;;;;;6915634;28;20045;-80
2022/06/13 07:35:43;;;;;;;8.27;2.88;;;18.60;97.10;;;;;;6915634;28;20046;-79
2022/06/13 07:39:05;;;;;;;8.82;2.83;;;18.50;94.50;;;;;;6915348;28;20081;-80
2022/06/13 07:42:27;;;;;;;8.23;2.20;;;18.50;94.50;;;;;;6915338;28;20061;-80
2022/06/13 07:45:51;;;;;;;10.17;3.03;;;18.60;95.00;;;;;;6915319;28;20360;-80
2022/06/13 07:49:15;;;;;;;9.45;2.63;;;18.70;95.20;;;;;;6915176;28;20301;-79
2022/06/13 07:52:37;;;;;;;8.55;2.70;;;18.70;94.40;;;;;;6915100;28;20081;-81
2022/06/13 07:55:59;;;;;;;8.50;2.70;;;18.70;93.70;;;;;;6915231;28;20057;-80
2022/06/13 07:59:30;;;;;;;7.93;2.80;;;18.90;94.30;;;;;;6915029;28;20408;-81
2022/06/13 08:02:54;;;;;;;8.82;2.50;;;19.10;93.60;;;;;;6915045;28;20484;-77
2022/06/13 08:06:17;;;;;;;7.20;2.38;;;19.10;94.20;;;;;;6915105;28;20097;-81
2022/06/13 08:09:40;;;;;;;8.07;2.63;;;19.20;92.70;;;;;;6914929;28;20046;-80
2022/06/13 08:13:02;;;;;;;7.43;2.50;;;19.30;92.20;;;;;;6914831;28;20514;-80
2022/06/13 08:16:24;;;;;;;8.73;2.53;;;19.30;93.00;;;;;;6914807;28;20093;-80
2022/06/13 08:19:47;;;;;;;9.48;2.38;;;19.30;91.80;;;;;;6914816;28;20495;-80
2022/06/13 08:23:12;;;;;;;;;;;19.30;91.60;;;;;;6915087;28;20057;-77
2022/06/13 08:26:34;;;;;;;7.95;2.95;;;19.30;92.20;;;;;;6914706;28;20338;-80
2022/06/13 08:29:56;;;;;;;7.30;2.38;;;19.40;91.40;;;;;;6914783;28;20081;-79
2022/06/13 08:33:19;;;;;;;9.00;2.53;;;19.50;91.80;;;;;;6914526;28;20089;-81
2022/06/13 08:36:42;;;;;;;8.23;2.80;;;19.50;90.90;;;;;;6918965;28;20770;-80
2022/06/13 08:40:06;;;;;;;11.10;2.78;;;19.50;90.80;;;;;;6919563;28;20129;-80
2022/06/13 08:44:01;;;;;;;10.15;2.38;;;19.60;91.80;;;;;;6921893;28;20448;-80
2022/06/13 08:47:35;;;;;;;7.97;3.03;;;19.60;91.30;;;;;;6930238;28;20192;-78
2022/06/13 08:51:08;;;;;;;10.05;2.60;;;19.80;90.80;;;;;;6929629;28;20050;-80
2022/06/13 08:54:34;;;;;;;7.45;2.30;;;19.80;91.20;;;;;;6927308;28;20050;-80
2022/06/13 08:58:08;;;;;;;7.45;2.50;;;19.90;90.60;;;;;;6920511;28;20057;-80
2022/06/13 09:01:35;;;;;;;7.90;2.35;;;20.00;90.70;;;;;;6922474;28;20088;-80
2022/06/13 09:05:05;;;;;;;11.30;2.92;;;19.90;90.00;;;;;;6919827;28;20135;-80
2022/06/13 09:08:38;;;;;;;7.20;2.72;;;20.00;90.10;;;;;;6918971;28;20408;-80
2022/06/13 09:12:07;;;;;;;14.48;5.72;;;20.10;88.90;;;;;;6919799;28;20415;-80
2022/06/13 09:15:37;;;;;;;7.80;2.67;;;20.20;89.90;;;;;;6918881;28;20050;-79
2022/06/13 09:19:07;;;;;;;9.88;2.90;;;20.40;89.00;;;;;;6918679;28;20115;-83
2022/06/13 09:22:38;;;;;;;8.52;2.45;;;20.40;89.10;;;;;;6920942;28;20046;-80
2022/06/13 09:26:10;;;;;;;9.90;2.50;;;20.50;86.30;;;;;;6918501;28;20101;-80
2022/06/13 09:29:39;;;;;;;8.82;2.20;;;20.20;84.60;;;;;;6918364;28;20514;-78
2022/06/13 09:33:10;;;;;;;8.25;2.17;;;20.30;85.60;;;;;;6918728;28;20093;-79
2022/06/13 09:36:36;;;;;;;7.38;2.10;;;20.40;84.80;;;;;;6921478;28;20054;-80
2022/06/13 09:39:58;;;;;;;10.68;2.30;;;20.50;86.50;;;;;;6917870;28;20053;-79
2022/06/13 09:43:38;;;;;;;8.15;2.15;;;20.60;84.90;;;;;;6917842;28;20503;-80
2022/06/13 09:47:11;;;;;;;6.97;2.03;;;20.60;82.40;;;;;;6918217;28;20424;-80
2022/06/13 09:50:45;;;;;;;9.27;2.50;;;20.70;83.30;;;;;;6917679;28;20436;-81
2022/06/13 09:54:18;;;;;;;6.15;1.95;;;20.80;84.80;;;;;;6917513;28;20105;-79
2022/06/13 09:57:51;;;;;;;8.15;2.50;;;21.00;85.30;;;;;;6917467;28;20107;-79
2022/06/13 10:01:22;;;;;;;10.23;2.58;;;20.90;81.00;;;;;;6917557;28;20500;-80
2022/06/13 10:04:55;;;;;;;8.00;2.38;;;20.90;80.20;;;;;;6917170;28;20092;-81
2022/06/13 10:08:28;;;;;;;;;;;21.00;80.10;;;;;;6917650;28;20717;-79
2022/06/13 10:12:01;;;;;;;5.10;2.13;;;21.00;81.70;;;;;;6916964;28;19922;-78
2022/06/13 10:15:34;;;;;;;7.22;2.50;;;21.00;80.80;;;;;;6916962;28;20127;-79
2022/06/13 10:19:17;;;;;;;8.10;2.13;;;21.10;80.30;;;;;;6916950;28;20045;-80
2022/06/13 10:22:53;;;;;;;9.48;2.00;;;21.00;76.60;;;;;;6916647;28;20092;-80
2022/06/13 10:26:29;;;;;;;7.75;2.28;;;20.90;75.80;;;;;;6916964;28;20046;-79
2022/06/13 10:30:15;;;;;;;6.15;1.88;;;21.00;75.00;;;;;;6916725;28;20503;-80
2022/06/13 10:33:53;;;;;;;12.90;6.40;;;21.00;73.20;;;;;;6916559;28;20094;-80
2022/06/13 10:37:22;;;;;;;7.68;2.53;;;20.90;70.70;;;;;;6916722;28;20079;-79
2022/06/13 10:40:44;;;;;;;6.43;1.70;;;20.90;74.90;;;;;;6922363;28;20050;-81
2022/06/13 10:44:12;;;;;;;7.03;1.55;;;20.90;70.00;;;;;;6917493;28;20092;-80
2022/06/13 10:47:42;;;;;;;6.35;1.40;;;20.80;67.30;;;;;;6917207;28;20129;-79
2022/06/13 10:51:05;;;;;;;4.75;1.75;;;20.80;67.20;;;;;;6916252;28;20203;-79
2022/06/13 10:54:36;;;;;;;6.18;1.48;;;20.80;66.50;;;;;;6916454;28;20088;-78
2022/06/13 10:58:03;;;;;;;7.28;1.70;;;20.90;68.00;;;;;;6916511;28;20081;-79
2022/06/13 11:01:29;;;;;;;4.32;1.30;;;21.00;66.30;;;;;;6916094;28;20052;-79
2022/06/13 11:05:06;;;;;;;6.20;1.67;;;21.00;65.40;;;;;;6915641;28;20058;-79
2022/06/13 11:08:30;;;;;;;5.57;1.42;;;21.00;64.10;;;;;;6915821;28;20477;-80
2022/06/13 11:11:58;;;;;;;4.03;1.60;;;21.00;65.90;;;;;;6915628;28;20081;-76
2022/06/13 11:23:02;;;;;;;9.02;1.77;;;21.20;63.90;;;;;;6916113;28;20054;-78
2022/06/13 11:30:43;;;;;;;5.95;1.50;;;21.50;63.60;;;;;;6915420;28;20072;-80
2022/06/13 11:34:26;;;;;;;5.53;1.50;;;21.70;63.40;;;;;;6893769;28;20526;-81
2022/06/13 11:37:48;;;;;;;5.25;1.60;;;21.70;66.00;;;;;;6915341;28;20524;-78
2022/06/13 11:41:18;;;;;;;7.15;1.85;;;21.70;64.30;;;;;;6915488;28;20077;-77
2022/06/13 11:44:44;;;;;;;6.82;1.58;;;21.70;63.50;;;;;;6915290;28;20393;-78
2022/06/13 11:48:06;;;;;;;4.47;1.73;;;21.60;63.50;;;;;;6915029;28;20045;-80
2022/06/13 11:51:41;;;;;;;6.47;1.63;;;21.70;64.00;;;;;;6914968;28;20069;-81
2022/06/13 11:55:04;;;;;;;4.28;1.40;;;21.80;62.20;;;;;;6914959;28;20049;-78
2022/06/13 11:58:31;;;;;;;4.65;1.40;;;22.00;63.30;;;;;;6915009;28;20045;-78
2022/06/13 12:01:57;;;;;;;5.75;1.60;;;22.00;62.30;;;;;;6914885;28;20085;-79
2022/06/13 12:05:28;;;;;;;8.18;1.75;;;22.10;62.60;;;;;;6915038;28;20101;-77
2022/06/13 12:09:03;;;;;;;6.67;1.73;;;22.20;62.20;;;;;;6914986;28;20098;-80
2022/06/13 12:12:28;;;;;;;4.40;1.40;;;22.30;60.30;;;;;;6920200;28;20123;-78
2022/06/13 12:15:58;;;;;;;4.72;1.50;;;22.40;59.50;;;;;;6920926;28;20050;-79
2022/06/13 12:19:32;;;;;;;5.43;1.50;;;22.40;61.40;;;;;;6924893;28;20045;-78
2022/06/13 12:23:02;;;;;;;5.10;1.67;;;22.50;62.50;;;;;;6925750;28;20050;-77
2022/06/13 12:26:32;;;;;;;4.72;1.50;;;22.60;62.50;;;;;;6920713;28;20085;-77
2022/06/13 12:30:15;;;;;;;6.22;1.50;;;22.90;60.90;;;;;;6921033;28;20053;-79
2022/06/13 12:33:56;;;;;;;5.57;1.55;;;22.80;59.60;;;;;;6921340;28;20054;-78
2022/06/13 12:37:38;;;;;;;5.85;1.50;;;23.00;59.90;;;;;;6920339;28;20041;-79
2022/06/13 12:41:07;;;;;;;;;;;23.20;60.80;;;;;;6919968;28;20423;-80
2022/06/13 12:45:03;;;;;;;4.85;1.50;;;23.40;56.60;;;;;;6919529;28;20355;-77
2022/06/13 12:48:31;;;;;;;5.65;1.60;;;23.10;56.20;;;;;;6919466;28;20061;-79
2022/06/13 12:51:59;;;;;;;5.43;1.60;;;22.90;57.30;;;;;;6920045;28;20158;-79
2022/06/13 12:55:38;;;;;;;5.57;1.60;;;22.90;59.50;;;;;;6919898;28;20185;-77
2022/06/13 12:59:15;;;;;;;3.35;1.50;;;22.70;58.80;;;;;;6919671;28;20073;-80
2022/06/13 13:03:06;;;;;;;5.47;1.38;;;22.90;58.80;;;;;;6921946;28;20054;-80
2022/06/13 13:06:38;;;;;;;4.07;1.38;;;23.30;56.70;;;;;;6918961;28;20085;-80
2022/06/13 13:10:28;;;;;;;4.80;1.38;;;23.40;58.30;;;;;;6918979;28;20452;-78
2022/06/13 13:13:54;;;;;;;3.08;1.20;;;23.50;55.10;;;;;;6918554;28;20088;-80
2022/06/13 13:17:26;;;;;;;5.50;1.80;;;23.50;54.80;;;;;;6919042;28;20050;-79
2022/06/13 13:20:56;;;;;;;5.20;1.60;;;23.70;56.00;;;;;;6917557;28;20049;-79
2022/06/13 13:24:47;;;;;;;3.75;1.48;;;24.00;56.60;;;;;;6918338;28;20092;-80
2022/06/13 13:28:25;;;;;;;4.93;1.40;;;24.20;55.10;;;;;;6918563;28;20516;-79
2022/06/13 13:31:54;;;;;;;4.65;1.33;;;24.00;56.70;;;;;;6918464;28;20081;-77
2022/06/13 13:35:29;;;;;;;4.68;1.55;;;24.20;55.50;;;;;;6919215;28;20476;-79
2022/06/13 13:38:57;;;;;;;6.63;3.00;;;24.30;55.90;;;;;;6918229;28;20093;-78
2022/06/13 13:42:29;;;;;;;6.57;1.60;;;24.50;55.20;;;;;;6917857;28;20053;-78
2022/06/13 13:45:57;;;;;;;4.68;1.63;;;24.40;54.80;;;;;;6918144;28;20144;-78
2022/06/13 13:49:29;;;;;;;4.45;1.27;;;24.60;54.50;;;;;;6917847;28;20407;-79
2022/06/13 13:52:57;;;;;;;5.47;1.27;;;24.70;53.80;;;;;;6917953;28;20476;-78
2022/06/13 13:56:30;;;;;;;5.75;1.75;;;24.50;54.30;;;;;;6917672;28;20132;-81
2022/06/13 13:59:58;;;;;;;4.28;1.50;;;24.60;54.70;;;;;;6917362;28;20140;-78
2022/06/13 14:03:33;;;;;;;6.63;1.67;;;24.70;53.50;;;;;;6916754;28;20045;-79
2022/06/13 14:07:37;;;;;;;5.32;1.50;;;24.80;52.80;;;;;;6917435;28;20074;-78
2022/06/13 14:11:00;;;;;;;4.95;1.60;;;24.90;53.20;;;;;;6908476;28;20046;-80
2022/06/13 14:14:28;;;;;;;4.72;1.30;;;25.30;52.20;;;;;;6916885;28;20061;-78
2022/06/13 14:17:52;;;;;;;3.42;1.30;;;25.40;54.30;;;;;;6917261;28;20492;-79
2022/06/13 14:21:19;;;;;;;4.05;1.30;;;25.50;52.20;;;;;;6916880;28;20046;-76
2022/06/13 14:24:58;;;;;;;4.13;1.38;;;25.30;49.30;;;;;;6916777;28;20081;-77
2022/06/13 14:28:22;;;;;;;4.50;1.20;;;25.40;51.00;;;;;;6916790;28;20077;-80
2022/06/13 14:31:57;;;;;;;3.38;1.20;;;25.20;49.40;;;;;;6916573;28;20056;-78
2022/06/13 14:35:57;;;;;;;5.57;1.45;;;25.10;49.30;;;;;;6916693;28;20082;-78
2022/06/13 14:39:29;;;;;;;5.13;1.38;;;25.00;50.20;;;;;;6911857;28;20046;-79
2022/06/13 14:42:56;;;;;;;6.07;1.30;;;25.00;49.40;;;;;;6917456;28;20050;-77
2022/06/13 14:46:41;;;;;;;4.30;1.13;;;25.20;49.90;;;;;;6918697;28;20054;-77
2022/06/13 14:50:06;;;;;;;4.13;1.60;;;25.30;48.00;;;;;;6922196;28;20053;-76
2022/06/13 14:53:43;;;;;;;4.88;1.10;;;25.70;48.90;;;;;;6925706;28;20071;-78
2022/06/13 14:57:46;;;;;;;6.10;1.40;;;26.10;49.00;;;;;;6945165;28;20048;-78
2022/06/13 15:01:20;;;;;;;5.57;1.48;;;26.20;47.60;;;;;;6922956;28;20053;-78
2022/06/13 15:05:00;;;;;;;5.43;1.30;;;26.40;48.00;;;;;;6930903;28;20137;-77
2022/06/13 15:08:41;;;;;;;5.25;1.40;;;26.50;49.00;;;;;;6942008;28;20056;-77
2022/06/13 15:12:12;;;;;;;4.55;1.30;;;26.90;49.40;;;;;;6940642;28;20143;-79
2022/06/13 15:15:37;;;;;;;4.38;1.45;;;27.20;46.50;;;;;;6924015;28;20056;-78
2022/06/13 15:19:04;;;;;;;3.08;1.33;;;27.40;46.20;;;;;;6935557;28;20049;-79
2022/06/13 15:22:32;;;;;;;4.30;1.20;;;27.50;47.90;;;;;;6938941;28;20076;-78
2022/06/13 15:25:56;;;;;;;5.00;1.35;;;27.70;47.60;;;;;;6939358;28;20092;-78
2022/06/13 15:29:23;;;;;;;4.88;1.67;;;27.70;46.70;;;;;;6936469;28;20042;-78
2022/06/13 15:32:45;;;;;;;4.05;1.10;;;27.80;46.00;;;;;;6917550;28;20084;-77
2022/06/13 15:36:14;;;;;;;3.90;1.20;;;28.00;46.00;;;;;;6924226;28;20500;-77
2022/06/13 15:39:41;;;;;;;6.82;1.30;;;27.90;45.80;;;;;;6918864;28;20053;-78
2022/06/13 15:43:05;;;;;;;5.35;1.30;;;27.50;45.70;;;;;;6915398;28;20045;-79
2022/06/13 15:46:31;;;;;;;3.95;1.40;;;27.20;46.40;;;;;;6914320;28;20476;-78
2022/06/13 15:49:54;;;;;;;3.83;1.40;;;27.10;46.00;;;;;;6918105;28;20050;-79
2022/06/13 15:53:28;;;;;;;3.20;1.30;;;27.20;46.40;;;;;;6914906;28;20057;-77
2022/06/13 15:57:04;;;;;;;3.20;1.30;;;27.70;46.60;;;;;;6924094;28;20091;-79
2022/06/13 16:00:34;;;;;;;3.53;1.20;;;28.60;44.00;;;;;;6940445;28;20055;-79
2022/06/13 16:03:56;;;;;;;2.55;1.02;;;28.50;43.10;;;;;;6922843;28;20380;-79
2022/06/13 16:07:27;;;;;;;6.63;1.50;;;28.10;44.70;;;;;;6920048;28;20460;-81
2022/06/13 16:10:52;;;;;;;5.28;1.40;;;27.90;44.60;;;;;;6924119;28;20041;-77
2022/06/13 16:14:16;;;;;;;4.68;1.30;;;28.00;45.90;;;;;;6927346;28;20057;-78
2022/06/13 16:17:46;;;;;;;4.05;1.67;;;28.50;45.60;;;;;;6917124;28;20053;-77
2022/06/13 16:21:12;;;;;;;6.32;1.70;;;28.40;47.00;;;;;;6920412;28;20504;-78
2022/06/13 16:24:36;;;;;;;4.60;1.55;;;28.70;44.30;;;;;;6916756;28;20137;-77
2022/06/13 16:27:59;;;;;;;3.83;1.63;;;28.80;44.70;;;;;;6925418;28;20092;-77
2022/06/13 16:31:22;;;;;;;5.10;1.50;;;28.50;44.70;;;;;;6932717;28;20042;-77
2022/06/13 16:34:53;;;;;;;3.38;1.40;;;28.40;44.80;;;;;;6937262;28;20048;-78
2022/06/13 16:38:16;;;;;;;5.63;1.50;;;28.30;45.80;;;;;;6938834;28;20084;-80
2022/06/13 16:41:42;;;;;;;3.90;1.20;;;28.30;45.60;;;;;;6940263;28;20057;-78
2022/06/13 16:45:12;;;;;;;6.07;2.00;;;28.40;44.20;;;;;;6938127;28;20054;-81
2022/06/13 16:48:43;;;;;;;4.63;1.63;;;28.10;45.60;;;;;;6939711;28;20041;-81
2022/06/13 16:52:10;;;;;;;4.57;1.60;;;28.40;45.40;;;;;;6927771;28;20093;-81
2022/06/13 16:55:36;;;;;;;4.20;1.40;;;28.20;45.00;;;;;;6940997;28;20042;-79
2022/06/13 16:59:06;;;;;;;3.53;1.23;;;28.50;44.30;;;;;;6944779;28;20503;-79
2022/06/13 17:02:32;;;;;;;3.13;1.40;;;28.20;44.60;;;;;;6943311;28;20045;-80
2022/06/13 17:05:58;;;;;;;4.45;1.30;;;28.00;45.10;;;;;;6945506;28;20083;-78
2022/06/13 17:09:23;;;;;;;4.65;1.20;;;28.30;45.70;;;;;;6933619;28;20049;-77
2022/06/13 17:13:02;;;;;;;3.85;1.40;;;28.40;45.10;;;;;;6943134;28;20049;-77
2022/06/13 17:16:27;;;;;;;5.85;1.65;;;28.70;44.30;;;;;;6940994;28;20164;-78
2022/06/13 17:19:52;;;;;;;4.15;1.45;;;28.40;45.00;;;;;;6942477;28;20048;-78
2022/06/13 17:23:18;;;;;;;3.50;1.35;;;28.50;44.00;;;;;;6922038;28;20057;-79
2022/06/13 17:34:01;;;;;;;6.30;1.60;;;28.30;43.90;;;;;;6942441;28;20471;-80
2022/06/13 17:37:24;;;;;;;3.63;1.55;;;28.40;43.90;;;;;;6925721;28;20336;-77
2022/06/13 17:40:48;;;;;;;4.00;1.23;;;28.20;44.60;;;;;;6910543;28;20042;-77
2022/06/13 17:44:13;;;;;;;3.55;1.30;;;28.10;44.10;;;;;;6935430;28;20057;-76
2022/06/13 17:47:36;;;;;;;4.38;1.52;;;27.90;45.30;;;;;;6936958;28;20140;-77
2022/06/13 17:50:59;;;;;;;4.38;1.50;;;27.90;45.30;;;;;;6924974;28;20084;-79
2022/06/13 17:54:22;;;;;;;3.42;1.30;;;27.90;45.50;;;;;;6922325;28;20495;-81
2022/06/13 17:57:44;;;;;;;3.88;1.40;;;28.00;44.30;;;;;;6917832;28;20045;-79
2022/06/13 18:01:09;;;;;;;4.85;1.60;;;28.00;44.80;;;;;;6917549;28;20053;-81
2022/06/13 18:04:33;;;;;;;4.75;1.48;;;28.10;44.70;;;;;;6919170;28;20046;-79
2022/06/13 18:07:58;;;;;;;3.13;1.13;;;27.90;45.00;;;;;;6897955;28;20057;-81
2022/06/13 18:11:20;;;;;;;3.47;1.48;;;28.00;43.90;;;;;;6918199;28;20042;-78
2022/06/13 18:14:43;;;;;;;4.10;1.30;;;28.00;43.60;;;;;;6917983;28;20081;-80
2022/06/13 18:18:06;;;;;;;;;;;27.90;43.70;;;;;;6916033;28;20073;-81
2022/06/13 18:21:31;;;;;;;6.03;1.60;;;27.80;44.80;;;;;;6911484;28;19928;-79
2022/06/13 18:24:53;;;;;;;4.30;1.30;;;27.80;45.10;;;;;;6912490;28;20050;-80
2022/06/13 18:28:18;;;;;;;3.58;1.23;;;27.60;46.60;;;;;;6912554;28;20049;-79
2022/06/13 18:31:42;;;;;;;3.38;1.35;;;27.50;46.10;;;;;;6938581;28;20042;-81
2022/06/13 18:35:07;;;;;;;4.68;1.52;;;27.30;46.40;;;;;;6939792;28;20045;-81